createdAt,value
2022-08-22T00:00:27.788Z,1.88
2022-08-22T00:05:57.410Z,2.00
2022-08-22T00:08:28.718Z,1.80
2022-08-22T00:11:25.725Z,1.88
2022-08-22T00:14:11.351Z,2.00
2022-08-22T00:16:46.740Z,2.40
2022-08-22T00:19:13.308Z,2.03
2022-08-22T00:21:57.546Z,1.75
2022-08-22T00:24:42.096Z,2.10
2022-08-22T00:27:14.932Z,1.88
2022-08-22T00:29:47.551Z,1.45
2022-08-22T00:32:23.816Z,1.60
2022-08-22T00:34:50.571Z,2.22
2022-08-22T00:37:21.631Z,1.80
2022-08-22T00:40:19.008Z,1.83
2022-08-22T00:43:03.414Z,1.75
2022-08-22T00:45:57.734Z,1.80
2022-08-22T00:48:47.423Z,1.90
2022-08-22T00:51:31.400Z,1.70
2022-08-22T00:54:35.452Z,1.80
2022-08-22T00:57:13.984Z,2.00
2022-08-22T00:59:43.890Z,1.83
2022-08-22T01:05:03.145Z,1.88
2022-08-22T01:08:01.765Z,1.80
2022-08-22T01:10:51.232Z,1.70
2022-08-22T01:13:26.799Z,1.90
2022-08-22T01:16:17.975Z,1.60
2022-08-22T01:19:22.912Z,1.70
2022-08-22T01:22:27.891Z,1.92
2022-08-22T01:25:32.175Z,1.85
2022-08-22T01:28:36.322Z,2.03
2022-08-22T01:31:24.586Z,2.10
2022-08-22T01:34:27.573Z,1.77
2022-08-22T01:36:54.046Z,2.00
2022-08-22T01:39:53.439Z,1.75
2022-08-22T01:42:41.130Z,1.80
2022-08-22T01:45:33.136Z,1.83
2022-08-22T01:48:11.331Z,1.92
2022-08-22T01:50:53.921Z,1.80
2022-08-22T01:53:42.624Z,1.70
2022-08-22T01:56:18.839Z,2.00
2022-08-22T01:59:25.374Z,2.00
2022-08-22T02:02:12.261Z,2.10
2022-08-22T02:04:47.309Z,1.80
2022-08-22T02:07:24.173Z,2.10
2022-08-22T02:10:15.765Z,1.90
2022-08-22T02:12:42.217Z,1.88
2022-08-22T02:15:15.004Z,1.90
2022-08-22T02:18:05.845Z,1.75
2022-08-22T02:20:47.463Z,1.88
2022-08-22T02:23:30.063Z,1.92
2022-08-22T02:26:08.526Z,1.83
2022-08-22T02:28:57.161Z,2.05
2022-08-22T02:31:36.657Z,1.83
2022-08-22T02:34:17.925Z,1.70
2022-08-22T02:36:51.706Z,2.05
2022-08-22T02:39:47.400Z,1.75
2022-08-22T02:42:24.626Z,1.75
2022-08-22T02:45:17.714Z,1.95
2022-08-22T02:48:00.820Z,2.05
2022-08-22T02:50:38.258Z,1.67
2022-08-22T02:53:14.335Z,1.85
2022-08-22T02:55:50.568Z,1.73
2022-08-22T02:58:48.000Z,2.22
2022-08-22T03:01:33.257Z,1.90
2022-08-22T03:04:44.611Z,2.17
2022-08-22T03:07:20.126Z,1.80
2022-08-22T03:09:55.515Z,2.15
2022-08-22T03:12:56.969Z,2.10
2022-08-22T03:15:24.096Z,1.88
2022-08-22T03:18:15.916Z,1.95
2022-08-22T03:20:50.397Z,1.88
2022-08-22T03:23:38.999Z,2.30
2022-08-22T03:26:18.227Z,2.05
2022-08-22T03:29:01.548Z,1.80
2022-08-22T03:31:31.490Z,1.88
2022-08-22T03:37:07.734Z,2.30
2022-08-22T03:39:37.357Z,2.40
2022-08-22T03:42:15.972Z,1.90
2022-08-22T03:45:03.614Z,2.35
2022-08-22T03:47:45.850Z,1.80
2022-08-22T03:50:49.938Z,2.30
2022-08-22T03:53:33.082Z,2.03
2022-08-22T03:56:33.115Z,2.20
2022-08-22T03:59:11.723Z,2.10
2022-08-22T04:02:42.237Z,1.88
2022-08-22T04:05:25.588Z,1.67
2022-08-22T04:08:00.939Z,1.85
2022-08-22T04:10:56.432Z,2.15
2022-08-22T04:13:38.344Z,2.38
2022-08-22T04:16:51.019Z,2.10
2022-08-22T04:19:38.700Z,2.03
2022-08-22T04:22:39.343Z,2.25
2022-08-22T04:25:41.243Z,2.03
2022-08-22T04:28:27.726Z,2.10
2022-08-22T04:31:10.227Z,2.05
2022-08-22T04:33:48.376Z,2.05
2022-08-22T04:36:26.426Z,2.40
2022-08-22T04:39:09.438Z,2.25
2022-08-22T04:41:48.211Z,1.90
2022-08-22T04:44:27.182Z,2.20
2022-08-22T04:47:23.987Z,2.10
2022-08-22T04:50:02.382Z,2.53
2022-08-22T04:52:41.193Z,2.03
2022-08-22T04:55:31.744Z,2.30
2022-08-22T04:58:33.078Z,1.90
2022-08-22T05:01:14.834Z,1.90
2022-08-22T05:03:51.210Z,2.35
2022-08-22T05:06:21.721Z,2.00
2022-08-22T05:08:53.709Z,1.90
2022-08-22T05:11:23.057Z,2.15
2022-08-22T05:14:02.191Z,2.13
2022-08-22T05:16:33.275Z,2.20
2022-08-22T05:19:12.102Z,2.30
2022-08-22T05:21:43.652Z,2.22
2022-08-22T05:24:18.380Z,2.30
2022-08-22T05:26:51.396Z,2.10
2022-08-22T05:29:25.498Z,2.40
2022-08-22T05:32:01.454Z,3.60
2022-08-22T05:34:34.295Z,2.30
2022-08-22T05:37:24.915Z,2.03
2022-08-22T05:39:57.826Z,2.40
2022-08-22T05:42:37.215Z,2.05
2022-08-22T05:45:11.547Z,2.15
2022-08-22T05:47:50.511Z,1.90
2022-08-22T05:50:23.787Z,2.10
2022-08-22T05:53:08.899Z,2.22
2022-08-22T05:55:50.474Z,2.17
2022-08-22T05:58:35.951Z,2.10
2022-08-22T06:01:22.998Z,2.10
2022-08-22T06:04:15.452Z,2.28
2022-08-22T06:06:56.773Z,2.00
2022-08-22T06:09:47.799Z,2.40
2022-08-22T06:12:22.022Z,2.13
2022-08-22T06:15:12.052Z,2.30
2022-08-22T06:17:46.776Z,2.38
2022-08-22T06:20:21.230Z,2.22
2022-08-22T06:22:53.696Z,2.30
2022-08-22T06:25:28.375Z,2.28
2022-08-22T06:27:58.174Z,2.20
2022-08-22T06:30:28.540Z,2.35
2022-08-22T06:33:02.628Z,2.53
2022-08-22T06:36:01.452Z,1.88
2022-08-22T06:38:34.964Z,2.40
2022-08-22T06:41:06.763Z,2.10
2022-08-22T06:43:43.752Z,1.75
2022-08-22T06:46:16.382Z,2.28
2022-08-22T06:48:44.218Z,2.15
2022-08-22T06:51:12.364Z,2.30
2022-08-22T06:53:48.195Z,2.60
2022-08-22T06:56:24.735Z,2.45
2022-08-22T06:58:56.513Z,2.20
2022-08-22T07:01:33.388Z,2.40
2022-08-22T07:04:07.088Z,2.15
2022-08-22T07:06:41.529Z,2.60
2022-08-22T07:09:37.036Z,2.53
2022-08-22T07:12:29.272Z,2.10
2022-08-22T07:15:09.832Z,2.00
2022-08-22T07:17:40.492Z,2.38
2022-08-22T07:20:19.318Z,2.38
2022-08-22T07:23:03.522Z,2.60
2022-08-22T07:25:31.895Z,2.20
2022-08-22T07:28:36.508Z,2.20
2022-08-22T07:31:32.481Z,2.10
2022-08-22T07:34:33.267Z,2.47
2022-08-22T07:37:09.059Z,2.20
2022-08-22T07:39:44.314Z,2.00
2022-08-22T07:42:16.786Z,2.05
2022-08-22T07:45:09.183Z,2.30
2022-08-22T07:47:57.348Z,2.38
2022-08-22T07:50:30.380Z,2.40
2022-08-22T07:53:13.629Z,2.45
2022-08-22T07:55:49.370Z,2.33
2022-08-22T07:58:17.808Z,2.50
2022-08-22T08:00:48.114Z,2.55
2022-08-22T08:03:15.095Z,2.08
2022-08-22T08:05:44.694Z,2.30
2022-08-22T08:10:48.944Z,1.92
2022-08-22T08:13:23.177Z,2.35
2022-08-22T08:15:50.906Z,2.33
2022-08-22T08:18:22.052Z,2.47
2022-08-22T08:20:59.448Z,2.60
2022-08-22T08:23:30.254Z,2.08
2022-08-22T08:26:15.838Z,2.35
2022-08-22T08:28:46.690Z,2.40
2022-08-22T08:31:35.530Z,2.53
2022-08-22T08:34:11.598Z,2.25
2022-08-22T08:36:47.611Z,2.53
2022-08-22T08:39:35.745Z,2.60
2022-08-22T08:42:20.578Z,2.30
2022-08-22T08:45:05.037Z,2.30
2022-08-22T08:47:43.595Z,2.30
2022-08-22T08:50:35.636Z,2.20
2022-08-22T08:53:38.681Z,2.15
2022-08-22T08:56:25.592Z,2.35
2022-08-22T08:59:10.321Z,2.40
2022-08-22T09:02:13.699Z,3.55
2022-08-22T09:05:01.611Z,2.58
2022-08-22T09:08:00.782Z,2.33
2022-08-22T09:10:57.420Z,2.28
2022-08-22T09:13:40.929Z,2.20
2022-08-22T09:16:24.917Z,2.30
2022-08-22T09:19:10.725Z,2.10
2022-08-22T09:21:55.985Z,2.28
2022-08-22T09:24:52.400Z,2.47
2022-08-22T09:27:46.679Z,2.10
2022-08-22T09:30:18.028Z,2.17
2022-08-22T09:33:06.232Z,2.10
2022-08-22T09:36:17.861Z,2.17
2022-08-22T09:39:17.970Z,2.22
2022-08-22T09:42:15.097Z,1.98
2022-08-22T09:45:07.493Z,2.15
2022-08-22T09:47:44.575Z,2.25
2022-08-22T09:50:24.600Z,2.40
2022-08-22T09:53:26.602Z,2.70
2022-08-22T09:56:15.206Z,2.20
2022-08-22T09:58:48.519Z,2.35
2022-08-22T10:01:48.070Z,2.70
2022-08-22T10:04:37.486Z,2.35
2022-08-22T10:07:33.004Z,2.20
2022-08-22T10:10:15.700Z,2.20
2022-08-22T10:16:00.358Z,2.40
2022-08-22T10:19:10.957Z,2.85
2022-08-22T10:21:46.717Z,2.53
2022-08-22T10:24:45.854Z,2.92
2022-08-22T10:27:31.736Z,2.65
2022-08-22T10:30:16.484Z,2.92
2022-08-22T10:33:15.255Z,2.63
2022-08-22T10:35:51.019Z,3.45
2022-08-22T10:38:46.488Z,2.58
2022-08-22T10:41:36.213Z,3.30
2022-08-22T10:44:16.429Z,3.00
2022-08-22T10:46:57.555Z,2.47
2022-08-22T10:49:37.770Z,3.17
2022-08-22T10:52:16.324Z,2.60
2022-08-22T10:55:05.624Z,3.00
2022-08-22T10:58:21.800Z,3.13
2022-08-22T11:01:01.076Z,3.15
2022-08-22T11:03:42.949Z,3.28
2022-08-22T11:06:29.244Z,2.45
2022-08-22T11:09:14.128Z,2.83
2022-08-22T11:11:43.632Z,2.72
2022-08-22T11:14:19.010Z,2.10
2022-08-22T11:17:23.674Z,2.40
2022-08-22T11:20:19.492Z,2.38
2022-08-22T11:23:13.340Z,2.20
2022-08-22T11:25:53.994Z,2.10
2022-08-22T11:28:38.720Z,1.75
2022-08-22T11:31:25.318Z,2.40
2022-08-22T11:34:02.105Z,2.47
2022-08-22T11:36:30.834Z,2.28
2022-08-22T11:39:17.903Z,2.33
2022-08-22T11:41:52.481Z,2.25
2022-08-22T11:44:27.676Z,2.30
2022-08-22T11:46:57.293Z,2.05
2022-08-22T11:49:42.733Z,1.90
2022-08-22T11:52:27.305Z,2.15
2022-08-22T11:55:15.494Z,1.92
2022-08-22T11:58:02.701Z,2.03
2022-08-22T12:00:40.170Z,2.25
2022-08-22T12:03:46.551Z,1.95
2022-08-22T12:06:54.446Z,2.10
2022-08-22T12:09:37.974Z,1.85
2022-08-22T12:12:25.687Z,2.10
2022-08-22T12:15:11.716Z,2.00
2022-08-22T12:18:12.730Z,2.30
2022-08-22T12:20:57.529Z,2.08
2022-08-22T12:23:40.742Z,2.10
2022-08-22T12:26:35.438Z,2.00
2022-08-22T12:29:18.978Z,1.95
2022-08-22T12:31:59.064Z,1.95
2022-08-22T12:34:55.991Z,2.20
2022-08-22T12:37:52.280Z,1.90
2022-08-22T12:40:38.278Z,2.15
2022-08-22T12:43:42.480Z,2.00
2022-08-22T12:46:23.994Z,2.00
2022-08-22T12:49:24.734Z,1.90
2022-08-22T12:52:28.870Z,1.80
2022-08-22T12:55:20.710Z,1.70
2022-08-22T12:58:11.535Z,1.50
2022-08-22T13:00:45.168Z,1.30
2022-08-22T13:03:21.328Z,1.38
2022-08-22T13:05:56.287Z,1.60
2022-08-22T13:08:42.032Z,1.50
2022-08-22T13:11:22.457Z,1.42
2022-08-22T13:13:56.451Z,1.33
2022-08-22T13:16:26.485Z,1.40
2022-08-22T13:18:57.102Z,1.63
2022-08-22T13:21:31.943Z,1.60
2022-08-22T13:24:12.473Z,1.52
2022-08-22T13:26:51.862Z,1.42
2022-08-22T13:29:26.095Z,1.40
2022-08-22T13:32:03.613Z,1.00
2022-08-22T13:34:45.994Z,1.40
2022-08-22T13:37:24.545Z,1.58
2022-08-22T13:39:58.586Z,1.45
2022-08-22T13:42:30.942Z,1.10
2022-08-22T13:45:02.465Z,1.48
2022-08-22T13:47:32.464Z,1.27
2022-08-22T13:50:19.347Z,1.40
2022-08-22T13:52:58.718Z,1.20
2022-08-22T13:56:01.171Z,1.40
2022-08-22T13:58:42.024Z,1.40
2022-08-22T14:01:09.605Z,1.42
2022-08-22T14:03:48.840Z,1.30
2022-08-22T14:06:35.342Z,1.65
2022-08-22T14:12:22.442Z,1.25
2022-08-22T14:14:56.580Z,1.58
2022-08-22T14:17:31.374Z,1.60
2022-08-22T14:20:08.407Z,1.40
2022-08-22T14:22:40.832Z,1.42
2022-08-22T14:25:18.148Z,1.60
2022-08-22T14:27:52.406Z,1.40
2022-08-22T14:30:29.437Z,1.50
2022-08-22T14:33:05.573Z,1.33
2022-08-22T14:35:42.200Z,1.60
2022-08-22T14:38:39.490Z,1.40
2022-08-22T14:41:56.010Z,1.33
2022-08-22T14:44:40.372Z,1.60
2022-08-22T14:47:34.496Z,1.25
2022-08-22T14:50:11.351Z,1.48
2022-08-22T14:52:43.404Z,1.63
2022-08-22T14:55:16.410Z,1.38
2022-08-22T14:58:08.158Z,1.30
2022-08-22T15:00:38.350Z,1.33
2022-08-22T15:03:20.475Z,1.30
2022-08-22T15:06:03.841Z,1.20
2022-08-22T15:08:42.351Z,1.35
2022-08-22T15:11:27.144Z,1.35
2022-08-22T15:14:08.523Z,1.60
2022-08-22T15:16:53.578Z,1.20
2022-08-22T15:19:34.595Z,2.17
2022-08-22T15:22:25.691Z,1.48
2022-08-22T15:25:15.745Z,1.60
2022-08-22T15:28:05.224Z,1.98
2022-08-22T15:30:38.435Z,1.70
2022-08-22T15:33:16.222Z,1.35
2022-08-22T15:35:45.356Z,1.75
2022-08-22T15:38:36.277Z,1.40
2022-08-22T15:41:31.406Z,1.27
2022-08-22T15:44:38.807Z,1.92
2022-08-22T15:47:40.485Z,1.63
2022-08-22T15:50:15.943Z,1.30
2022-08-22T15:53:14.130Z,1.30
2022-08-22T15:56:13.087Z,1.50
2022-08-22T15:58:48.633Z,1.30
2022-08-22T16:01:25.397Z,1.40
2022-08-22T16:04:09.522Z,1.42
2022-08-22T16:06:53.225Z,1.20
2022-08-22T16:09:38.434Z,1.77
2022-08-22T16:12:10.815Z,1.23
2022-08-22T16:14:37.376Z,1.20
2022-08-22T16:17:26.114Z,1.48
2022-08-22T16:20:08.189Z,1.48
2022-08-22T16:22:58.590Z,1.50
2022-08-22T16:25:50.112Z,1.60
2022-08-22T16:28:57.877Z,1.13
2022-08-22T16:31:30.860Z,1.50
2022-08-22T16:34:21.048Z,2.03
2022-08-22T16:37:03.463Z,1.38
2022-08-22T16:39:44.145Z,1.40
2022-08-22T16:42:19.486Z,1.35
2022-08-22T16:45:05.124Z,1.52
2022-08-22T16:47:32.692Z,1.63
2022-08-22T16:50:03.575Z,2.20
2022-08-22T16:52:30.230Z,1.40
2022-08-22T16:55:07.026Z,1.60
2022-08-22T16:57:50.558Z,1.85
2022-08-22T17:00:39.757Z,1.83
2022-08-22T17:03:22.811Z,1.88
2022-08-22T17:06:23.140Z,2.50
2022-08-22T17:08:58.364Z,2.55
2022-08-22T17:11:40.755Z,2.88
2022-08-22T17:14:28.413Z,3.25
2022-08-22T17:17:16.578Z,3.13
2022-08-22T17:19:43.088Z,3.00
2022-08-22T17:22:28.475Z,2.92
2022-08-22T17:25:02.247Z,3.42
2022-08-22T17:27:38.506Z,3.17
2022-08-22T17:30:12.724Z,3.42
2022-08-22T17:33:03.368Z,3.80
2022-08-22T17:36:06.287Z,3.88
2022-08-22T17:39:19.372Z,4.30
2022-08-22T17:41:53.977Z,4.38
2022-08-22T17:44:38.789Z,3.60
2022-08-22T17:47:18.071Z,3.97
2022-08-22T17:50:05.509Z,4.10
2022-08-22T17:53:06.183Z,4.40
2022-08-22T17:55:56.735Z,4.78
2022-08-22T17:58:31.885Z,3.90
2022-08-22T18:01:13.555Z,4.20
2022-08-22T18:03:49.266Z,3.00
2022-08-22T18:06:30.522Z,2.33
2022-08-22T18:09:17.799Z,1.85
2022-08-22T18:11:58.322Z,2.25
2022-08-22T18:14:51.477Z,2.00
2022-08-22T18:17:34.879Z,1.95
2022-08-22T18:20:09.794Z,1.80
2022-08-22T18:22:45.893Z,1.73
2022-08-22T18:25:18.571Z,1.50
2022-08-22T18:27:56.094Z,1.55
2022-08-22T18:30:36.862Z,1.52
2022-08-22T18:33:29.444Z,1.73
2022-08-22T18:36:09.083Z,1.77
2022-08-22T18:38:49.559Z,1.63
2022-08-22T18:41:26.689Z,1.75
2022-08-22T18:43:54.909Z,1.33
2022-08-22T18:46:45.048Z,1.98
2022-08-22T18:49:20.972Z,1.73
2022-08-22T18:52:06.007Z,1.50
2022-08-22T18:55:06.243Z,1.85
2022-08-22T18:57:55.621Z,2.55
2022-08-22T19:00:54.913Z,1.50
2022-08-22T19:03:58.512Z,4.43
2022-08-22T19:07:04.872Z,1.60
2022-08-22T19:09:32.476Z,1.60
2022-08-22T19:12:31.886Z,1.58
2022-08-22T19:15:13.669Z,1.67
2022-08-22T19:17:58.865Z,1.42
2022-08-22T19:21:10.913Z,1.77
2022-08-22T19:23:40.372Z,1.50
2022-08-22T19:26:28.719Z,1.75
2022-08-22T19:28:59.909Z,1.50
2022-08-22T19:31:35.699Z,1.42
2022-08-22T19:34:28.255Z,1.50
2022-08-22T19:37:32.015Z,1.60
2022-08-22T19:40:05.139Z,1.50
2022-08-22T19:42:35.749Z,1.50
2022-08-22T19:45:07.975Z,1.33
2022-08-22T19:47:39.285Z,1.60
2022-08-22T19:50:18.091Z,1.60
2022-08-22T19:52:56.592Z,1.73
2022-08-22T19:55:38.183Z,1.65
2022-08-22T19:58:20.947Z,1.60
2022-08-22T20:01:20.542Z,1.50
2022-08-22T20:03:58.779Z,1.77
2022-08-22T20:06:50.832Z,1.50
2022-08-22T20:09:38.793Z,1.50
2022-08-22T20:12:23.704Z,1.85
2022-08-22T20:14:51.231Z,1.92
2022-08-22T20:17:26.672Z,2.30
2022-08-22T20:20:19.249Z,1.65
2022-08-22T20:22:52.946Z,2.08
2022-08-22T20:25:51.336Z,1.63
2022-08-22T20:29:17.628Z,1.85
2022-08-22T20:31:48.920Z,2.15
2022-08-22T20:34:20.157Z,2.42
2022-08-22T20:36:55.970Z,2.10
2022-08-22T20:39:49.848Z,2.70
2022-08-22T20:42:28.538Z,1.92
2022-08-22T20:47:38.058Z,2.55
2022-08-22T20:50:15.140Z,2.70
2022-08-22T20:52:51.863Z,2.22
2022-08-22T20:55:31.768Z,2.63
2022-08-22T20:58:02.942Z,1.80
2022-08-22T21:00:44.814Z,2.45
2022-08-22T21:03:25.944Z,2.25
2022-08-22T21:05:52.736Z,2.22
2022-08-22T21:08:26.271Z,2.60
2022-08-22T21:11:21.350Z,2.70
2022-08-22T21:13:49.197Z,2.78
2022-08-22T21:16:31.633Z,1.92
2022-08-22T21:18:59.007Z,1.80
2022-08-22T21:21:31.394Z,1.85
2022-08-22T21:24:01.345Z,2.40
2022-08-22T21:26:36.591Z,1.85
2022-08-22T21:29:12.142Z,2.70
2022-08-22T21:31:52.630Z,2.22
2022-08-22T21:34:28.076Z,1.98
2022-08-22T21:36:59.659Z,2.30
2022-08-22T21:39:30.681Z,2.60
2022-08-22T21:41:59.977Z,2.10
2022-08-22T21:44:39.414Z,2.08
2022-08-22T21:47:30.644Z,2.10
2022-08-22T21:50:02.285Z,2.63
2022-08-22T21:52:32.890Z,1.75
2022-08-22T21:55:29.024Z,2.10
2022-08-22T21:58:35.200Z,2.17
2022-08-22T22:01:24.777Z,1.58
2022-08-22T22:03:52.080Z,2.30
2022-08-22T22:06:18.834Z,1.75
2022-08-22T22:08:46.222Z,2.25
2022-08-22T22:11:15.125Z,2.38
2022-08-22T22:13:42.468Z,2.27
2022-08-22T22:16:14.546Z,2.17
2022-08-22T22:18:41.194Z,2.00
2022-08-22T22:21:08.933Z,2.08
2022-08-22T22:23:35.605Z,1.83
2022-08-22T22:26:04.836Z,2.28
2022-08-22T22:28:40.341Z,2.33
2022-08-22T22:31:07.672Z,2.35
2022-08-22T22:33:38.542Z,2.45
2022-08-22T22:36:13.095Z,2.40
2022-08-22T22:38:40.893Z,1.90
2022-08-22T22:41:07.406Z,2.80
2022-08-22T22:43:34.200Z,2.28
2022-08-22T22:46:00.771Z,2.28
2022-08-22T22:48:27.386Z,2.08
2022-08-22T22:50:54.124Z,2.25
2022-08-22T22:53:37.972Z,2.22
2022-08-22T22:56:09.327Z,1.95
2022-08-22T22:58:37.442Z,2.22
2022-08-22T23:01:22.550Z,2.17
2022-08-22T23:03:54.630Z,1.83
2022-08-22T23:06:23.943Z,2.75
2022-08-22T23:08:51.189Z,1.65
2022-08-22T23:11:23.973Z,2.35
2022-08-22T23:13:51.127Z,2.25
2022-08-22T23:16:21.207Z,2.28
2022-08-22T23:18:48.619Z,2.22
2022-08-22T23:21:17.062Z,2.17
2022-08-22T23:23:44.263Z,2.28
2022-08-22T23:26:12.139Z,2.30
2022-08-22T23:28:39.111Z,2.03
2022-08-22T23:31:28.952Z,2.33
2022-08-22T23:36:23.781Z,2.42
2022-08-22T23:38:52.047Z,2.08
2022-08-22T23:41:21.512Z,2.17
2022-08-22T23:43:52.106Z,2.33
2022-08-22T23:46:21.566Z,1.95
2022-08-22T23:48:48.826Z,2.60
2022-08-22T23:51:18.349Z,2.33
2022-08-22T23:53:50.299Z,2.20
2022-08-22T23:56:22.421Z,2.30
2022-08-22T23:58:50.255Z,2.42
